createdAt,value
2018-12-29T00:00:54.925Z,16.95
2018-12-29T00:03:35.602Z,16.87
2018-12-29T00:06:16.035Z,14.68
2018-12-29T00:08:56.591Z,21.97
2018-12-29T00:11:37.031Z,19.75
2018-12-29T00:14:17.387Z,18.98
2018-12-29T00:16:58.015Z,18.73
2018-12-29T00:19:38.958Z,20.05
2018-12-29T00:22:19.655Z,19.07
2018-12-29T00:25:00.524Z,17.00
2018-12-29T00:27:41.174Z,22.30
2018-12-29T00:30:21.588Z,20.40
2018-12-29T00:33:02.312Z,23.38
2018-12-29T00:35:43.004Z,22.58
2018-12-29T00:38:23.457Z,25.15
2018-12-29T00:41:04.493Z,20.80
2018-12-29T00:43:44.963Z,21.57
2018-12-29T00:46:25.795Z,18.82
2018-12-29T00:49:06.404Z,27.07
2018-12-29T00:51:47.360Z,20.90
2018-12-29T00:54:27.955Z,19.75
2018-12-29T00:57:08.427Z,20.48
2018-12-29T00:59:49.076Z,19.30
2018-12-29T01:02:29.971Z,22.70
2018-12-29T01:05:10.486Z,17.70
2018-12-29T01:07:51.499Z,18.40
2018-12-29T01:10:32.295Z,17.85
2018-12-29T01:13:12.915Z,18.15
2018-12-29T01:15:53.688Z,18.42
2018-12-29T01:18:34.215Z,18.00
2018-12-29T01:21:14.807Z,15.03
2018-12-29T01:23:55.720Z,15.23
2018-12-29T01:26:36.367Z,15.95
2018-12-29T01:29:17.301Z,15.38
2018-12-29T01:31:58.254Z,17.05
2018-12-29T01:34:38.939Z,17.27
2018-12-29T01:37:19.737Z,13.38
2018-12-29T01:40:00.348Z,17.30
2018-12-29T01:42:40.911Z,19.45
2018-12-29T01:45:21.583Z,22.98
2018-12-29T01:48:02.239Z,16.00
2018-12-29T01:50:43.011Z,16.27
2018-12-29T01:53:23.660Z,13.40
2018-12-29T01:56:04.170Z,15.38
2018-12-29T01:58:45.020Z,11.08
2018-12-29T02:01:25.691Z,13.98
2018-12-29T02:04:06.331Z,17.70
2018-12-29T02:06:47.271Z,15.18
2018-12-29T02:09:28.045Z,20.32
2018-12-29T02:12:08.851Z,17.55
2018-12-29T02:14:49.720Z,17.65
2018-12-29T02:17:30.715Z,19.55
2018-12-29T02:20:11.512Z,15.03
2018-12-29T02:22:52.054Z,12.00
2018-12-29T02:25:32.431Z,14.65
2018-12-29T02:28:12.800Z,17.02
2018-12-29T02:30:53.638Z,20.05
2018-12-29T02:33:34.715Z,17.35
2018-12-29T02:36:15.330Z,14.95
2018-12-29T02:38:56.199Z,15.10
2018-12-29T02:41:36.795Z,20.17
2018-12-29T02:44:17.503Z,19.98
2018-12-29T02:46:58.151Z,16.37
2018-12-29T02:49:38.849Z,16.80
2018-12-29T02:52:19.427Z,16.23
2018-12-29T02:55:00.200Z,19.77
2018-12-29T02:57:41.145Z,12.33
2018-12-29T03:00:21.844Z,16.52
2018-12-29T03:03:02.279Z,15.18
2018-12-29T03:05:43.178Z,15.60
2018-12-29T03:08:24.052Z,13.30
2018-12-29T03:11:04.956Z,11.95
2018-12-29T03:13:45.423Z,12.78
2018-12-29T03:16:26.226Z,14.10
2018-12-29T03:19:06.632Z,15.08
2018-12-29T03:21:47.581Z,13.40
2018-12-29T03:24:28.068Z,11.40
2018-12-29T03:27:08.513Z,14.43
2018-12-29T03:29:49.184Z,12.65
2018-12-29T03:32:29.823Z,17.10
2018-12-29T03:35:10.564Z,15.95
2018-12-29T03:37:51.243Z,15.85
2018-12-29T03:40:32.076Z,12.93
2018-12-29T03:43:12.903Z,13.75
2018-12-29T03:45:53.784Z,13.32
2018-12-29T03:48:34.708Z,15.15
2018-12-29T03:51:15.390Z,13.20
2018-12-29T03:53:56.298Z,11.08
2018-12-29T03:56:37.064Z,13.05
2018-12-29T03:59:17.771Z,13.60
2018-12-29T04:01:58.304Z,11.53
2018-12-29T04:04:39.079Z,12.03
2018-12-29T04:07:20.227Z,11.78
2018-12-29T04:10:01.089Z,13.35
2018-12-29T04:12:41.812Z,15.58
2018-12-29T04:15:22.674Z,18.60
2018-12-29T04:18:03.167Z,16.05
2018-12-29T04:20:43.667Z,10.82
2018-12-29T04:23:24.414Z,17.20
2018-12-29T04:26:05.229Z,13.53
2018-12-29T04:28:45.986Z,12.18
2018-12-29T04:31:27.007Z,11.78
2018-12-29T04:34:07.452Z,14.80
2018-12-29T04:36:48.447Z,16.17
2018-12-29T04:39:29.032Z,14.63
2018-12-29T04:42:09.408Z,16.20
2018-12-29T04:44:50.469Z,10.68
2018-12-29T04:47:31.048Z,13.30
2018-12-29T04:50:11.457Z,17.07
2018-12-29T04:52:52.111Z,16.67
2018-12-29T04:55:32.753Z,12.28
2018-12-29T04:58:13.163Z,12.88
2018-12-29T05:00:53.837Z,15.43
2018-12-29T05:03:34.355Z,11.90
2018-12-29T05:06:15.032Z,12.93
2018-12-29T05:08:55.460Z,17.60
2018-12-29T05:11:35.911Z,15.18
2018-12-29T05:14:16.416Z,14.78
2018-12-29T05:16:57.020Z,14.43
2018-12-29T05:19:37.563Z,15.53
2018-12-29T05:22:18.609Z,15.45
2018-12-29T05:24:59.359Z,12.85
2018-12-29T05:27:40.316Z,15.23
2018-12-29T05:30:21.258Z,16.20
2018-12-29T05:33:01.648Z,16.62
2018-12-29T05:35:42.339Z,13.90
2018-12-29T05:38:22.935Z,12.60
2018-12-29T05:41:03.784Z,16.25
2018-12-29T05:43:44.451Z,12.28
2018-12-29T05:46:25.049Z,12.63
2018-12-29T05:49:05.691Z,11.38
2018-12-29T05:51:46.426Z,13.08
2018-12-29T05:54:27.147Z,14.87
2018-12-29T05:57:08.163Z,13.75
2018-12-29T05:59:49.143Z,15.00
2018-12-29T06:02:29.808Z,19.48
2018-12-29T06:05:10.826Z,18.12
2018-12-29T06:07:51.863Z,19.15
2018-12-29T06:10:32.682Z,21.68
2018-12-29T06:13:13.532Z,22.93
2018-12-29T06:15:54.344Z,19.85
2018-12-29T06:18:35.299Z,18.70
2018-12-29T06:21:16.060Z,19.40
2018-12-29T06:23:56.983Z,21.05
2018-12-29T06:26:37.923Z,20.68
2018-12-29T06:29:18.937Z,20.92
2018-12-29T06:32:00.128Z,17.10
2018-12-29T06:34:40.998Z,22.00
2018-12-29T06:37:21.794Z,18.35
2018-12-29T06:40:02.579Z,23.30
2018-12-29T06:42:43.163Z,20.52
2018-12-29T06:45:23.835Z,20.32
2018-12-29T06:48:04.588Z,22.10
2018-12-29T06:50:45.099Z,28.27
2018-12-29T06:53:25.951Z,27.32
2018-12-29T06:56:06.787Z,24.52
2018-12-29T06:58:47.567Z,32.98
2018-12-29T07:01:28.731Z,32.25
2018-12-29T07:04:09.957Z,38.23
2018-12-29T07:06:50.928Z,34.43
2018-12-29T07:09:31.782Z,32.67
2018-12-29T07:12:12.612Z,29.98
2018-12-29T07:14:53.146Z,33.92
2018-12-29T07:17:34.218Z,29.95
2018-12-29T07:20:14.956Z,29.77
2018-12-29T07:22:55.859Z,33.40
2018-12-29T07:25:36.490Z,35.73
2018-12-29T07:28:17.499Z,47.83
2018-12-29T07:30:58.088Z,48.80
2018-12-29T07:33:38.592Z,48.35
2018-12-29T07:36:19.215Z,45.63
2018-12-29T07:38:59.579Z,40.67
2018-12-29T07:41:40.107Z,38.05
2018-12-29T07:44:20.527Z,47.38
2018-12-29T07:47:01.047Z,45.08
2018-12-29T07:49:42.100Z,40.30
2018-12-29T07:52:22.612Z,44.13
2018-12-29T07:55:03.163Z,54.20
2018-12-29T07:57:43.801Z,47.48
2018-12-29T08:00:24.723Z,42.65
2018-12-29T08:03:05.555Z,41.30
2018-12-29T08:05:46.202Z,36.68
2018-12-29T08:08:27.092Z,53.95
2018-12-29T08:11:07.680Z,40.40
2018-12-29T08:13:48.055Z,54.27
2018-12-29T08:16:28.854Z,47.13
2018-12-29T08:19:09.431Z,41.95
2018-12-29T08:21:49.966Z,51.20
2018-12-29T08:24:30.375Z,45.98
2018-12-29T08:27:11.215Z,45.25
2018-12-29T08:29:52.193Z,48.13
2018-12-29T08:32:33.028Z,43.13
2018-12-29T08:35:13.940Z,44.00
2018-12-29T08:37:55.179Z,50.28
2018-12-29T08:40:35.950Z,46.20
2018-12-29T08:43:16.967Z,52.75
2018-12-29T08:45:57.932Z,39.85
2018-12-29T08:48:39.104Z,42.40
2018-12-29T08:51:19.663Z,48.28
2018-12-29T08:54:00.478Z,39.92
2018-12-29T08:56:41.007Z,45.52
2018-12-29T08:59:21.797Z,50.80
2018-12-29T09:02:02.654Z,46.08
2018-12-29T09:04:43.436Z,40.78
2018-12-29T09:07:24.311Z,48.48
2018-12-29T09:10:05.878Z,38.70
2018-12-29T09:12:47.149Z,38.60
2018-12-29T09:15:28.087Z,44.18
2018-12-29T09:18:08.429Z,41.35
2018-12-29T09:20:48.868Z,38.20
2018-12-29T09:23:29.887Z,52.50
2018-12-29T09:26:10.739Z,47.35
2018-12-29T09:28:51.311Z,45.25
2018-12-29T09:31:31.814Z,41.05
2018-12-29T09:34:12.359Z,40.43
2018-12-29T09:36:52.943Z,37.65
2018-12-29T09:39:33.239Z,42.55
2018-12-29T09:42:13.888Z,43.30
2018-12-29T09:44:54.214Z,38.80
2018-12-29T09:47:34.783Z,40.83
2018-12-29T09:50:15.665Z,42.75
2018-12-29T09:52:56.213Z,40.55
2018-12-29T09:55:37.204Z,45.43
2018-12-29T09:58:17.954Z,40.85
2018-12-29T10:00:58.921Z,39.38
2018-12-29T10:03:39.715Z,29.67
2018-12-29T10:06:20.770Z,36.98
2018-12-29T10:09:01.586Z,37.23
2018-12-29T10:11:42.087Z,48.78
2018-12-29T10:14:22.799Z,33.90
2018-12-29T10:17:03.132Z,33.85
2018-12-29T10:19:44.019Z,33.70
2018-12-29T10:22:24.940Z,39.65
2018-12-29T10:25:06.027Z,33.38
2018-12-29T10:27:46.616Z,36.03
2018-12-29T10:30:27.426Z,36.17
2018-12-29T10:33:07.770Z,38.02
2018-12-29T10:35:48.557Z,39.00
2018-12-29T10:38:29.247Z,43.38
2018-12-29T10:41:09.677Z,35.05
2018-12-29T10:43:49.971Z,34.15
2018-12-29T10:46:30.853Z,45.40
2018-12-29T10:49:11.223Z,48.58
2018-12-29T10:51:51.908Z,40.55
2018-12-29T10:54:32.876Z,39.83
2018-12-29T10:57:13.879Z,31.75
2018-12-29T10:59:54.329Z,26.15
2018-12-29T11:02:35.383Z,31.52
2018-12-29T11:05:16.094Z,31.35
2018-12-29T11:07:56.623Z,32.08
2018-12-29T11:10:37.221Z,31.48
2018-12-29T11:13:18.339Z,31.97
2018-12-29T11:15:59.388Z,34.50
2018-12-29T11:18:39.936Z,40.95
2018-12-29T11:21:20.861Z,30.17
2018-12-29T11:24:01.688Z,32.35
2018-12-29T11:26:42.780Z,30.68
2018-12-29T11:29:23.612Z,29.30
2018-12-29T11:32:04.267Z,26.90
2018-12-29T11:34:44.812Z,26.65
2018-12-29T11:37:25.137Z,35.13
2018-12-29T11:40:05.640Z,27.48
2018-12-29T11:42:46.783Z,34.70
2018-12-29T11:45:27.534Z,25.43
2018-12-29T11:48:08.220Z,37.00
2018-12-29T11:50:48.705Z,31.82
2018-12-29T11:53:29.427Z,30.80
2018-12-29T11:56:10.135Z,26.62
2018-12-29T11:58:50.689Z,26.97
2018-12-29T12:01:31.278Z,26.30
2018-12-29T12:04:11.984Z,24.70
2018-12-29T12:06:52.856Z,26.05
2018-12-29T12:09:33.736Z,30.85
2018-12-29T12:12:14.427Z,24.57
2018-12-29T12:14:55.090Z,26.30
2018-12-29T12:17:35.859Z,26.93
2018-12-29T12:20:16.620Z,27.67
2018-12-29T12:22:57.462Z,28.17
2018-12-29T12:25:38.476Z,25.30
2018-12-29T12:28:19.319Z,24.20
2018-12-29T12:31:00.047Z,23.35
2018-12-29T12:33:40.920Z,27.48
2018-12-29T12:36:21.395Z,26.48
2018-12-29T12:39:02.138Z,22.67
2018-12-29T12:41:42.836Z,23.55
2018-12-29T12:44:23.785Z,23.27
2018-12-29T12:47:04.774Z,26.68
2018-12-29T12:49:48.215Z,25.20
2018-12-29T12:52:29.287Z,22.85
2018-12-29T12:55:09.979Z,22.82
2018-12-29T12:57:50.818Z,20.72
2018-12-29T13:00:31.836Z,18.60
2018-12-29T13:03:12.807Z,25.48
2018-12-29T13:05:53.738Z,24.15
2018-12-29T13:08:34.627Z,19.48
2018-12-29T13:11:15.334Z,20.77
2018-12-29T13:13:56.712Z,19.87
2018-12-29T13:16:37.103Z,20.20
2018-12-29T13:19:17.816Z,19.82
2018-12-29T13:21:58.659Z,17.70
2018-12-29T13:24:39.495Z,22.27
2018-12-29T13:27:20.300Z,22.80
2018-12-29T13:30:01.136Z,18.95
2018-12-29T13:32:42.271Z,22.35
2018-12-29T13:35:22.973Z,17.82
2018-12-29T13:38:03.835Z,17.48
2018-12-29T13:40:44.766Z,17.62
2018-12-29T13:43:25.428Z,23.65
2018-12-29T13:46:06.111Z,17.25
2018-12-29T13:48:46.724Z,19.07
2018-12-29T13:51:27.828Z,21.23
2018-12-29T13:54:08.690Z,18.05
2018-12-29T13:56:49.264Z,18.62
2018-12-29T13:59:30.316Z,14.75
2018-12-29T14:02:10.890Z,18.07
2018-12-29T14:04:51.570Z,16.73
2018-12-29T14:07:32.506Z,16.15
2018-12-29T14:10:13.349Z,19.87
2018-12-29T14:12:54.174Z,18.20
2018-12-29T14:15:35.113Z,16.80
2018-12-29T14:18:15.876Z,19.02
2018-12-29T14:20:56.680Z,14.53
2018-12-29T14:23:37.420Z,19.85
2018-12-29T14:26:18.041Z,17.52
2018-12-29T14:28:58.849Z,19.52
2018-12-29T14:31:39.698Z,17.55
2018-12-29T14:34:20.710Z,20.57
2018-12-29T14:37:01.287Z,15.53
2018-12-29T14:39:42.278Z,15.75
2018-12-29T14:42:23.376Z,16.60
2018-12-29T14:45:03.888Z,22.75
2018-12-29T14:47:44.658Z,16.57
2018-12-29T14:50:25.426Z,17.85
2018-12-29T14:53:06.385Z,13.93
2018-12-29T14:55:47.174Z,17.30
2018-12-29T14:58:27.847Z,12.25
2018-12-29T15:01:08.496Z,14.95
2018-12-29T15:03:49.230Z,17.82
2018-12-29T15:06:29.755Z,18.05
2018-12-29T15:09:10.887Z,16.97
2018-12-29T15:11:51.711Z,16.52
2018-12-29T15:14:32.550Z,17.77
2018-12-29T15:17:13.456Z,13.65
2018-12-29T15:19:54.405Z,13.93
2018-12-29T15:22:35.119Z,26.52
2018-12-29T15:25:16.039Z,22.35
2018-12-29T15:27:56.757Z,21.95
2018-12-29T15:30:37.547Z,19.55
2018-12-29T15:33:18.068Z,32.58
2018-12-29T15:35:58.467Z,26.35
2018-12-29T15:38:38.851Z,14.65
2018-12-29T15:41:19.492Z,17.27
2018-12-29T15:44:00.243Z,19.80
2018-12-29T15:46:41.071Z,20.27
2018-12-29T15:49:21.996Z,21.12
2018-12-29T15:52:02.508Z,23.02
2018-12-29T15:54:43.144Z,15.68
2018-12-29T15:57:23.712Z,17.25
2018-12-29T16:00:04.257Z,18.60
2018-12-29T16:02:44.804Z,29.32
2018-12-29T16:05:25.526Z,18.42
2018-12-29T16:08:06.170Z,19.67
2018-12-29T16:10:47.067Z,20.72
2018-12-29T16:13:28.203Z,23.38
2018-12-29T16:16:08.806Z,24.05
2018-12-29T16:18:49.259Z,22.50
2018-12-29T16:21:30.130Z,22.20
2018-12-29T16:24:10.844Z,27.55
2018-12-29T16:26:52.150Z,16.23
2018-12-29T16:29:32.703Z,28.47
2018-12-29T16:32:13.376Z,19.52
2018-12-29T16:34:54.287Z,19.90
2018-12-29T16:37:35.377Z,27.98
2018-12-29T16:40:15.963Z,25.75
2018-12-29T16:42:56.348Z,34.20
2018-12-29T16:45:37.322Z,23.27
2018-12-29T16:48:18.180Z,28.60
2018-12-29T16:50:58.808Z,23.90
2018-12-29T16:53:39.732Z,24.57
2018-12-29T16:56:20.622Z,26.00
2018-12-29T16:59:01.988Z,22.35
2018-12-29T17:01:42.683Z,29.65
2018-12-29T17:04:23.623Z,25.20
2018-12-29T17:07:04.104Z,25.75
2018-12-29T17:09:44.751Z,29.77
2018-12-29T17:12:26.155Z,24.75
2018-12-29T17:15:06.714Z,29.30
2018-12-29T17:17:47.303Z,27.07
2018-12-29T17:20:27.935Z,29.10
2018-12-29T17:23:08.791Z,26.23
2018-12-29T17:25:50.174Z,28.12
2018-12-29T17:28:30.491Z,29.40
2018-12-29T17:31:11.237Z,26.05
2018-12-29T17:33:52.006Z,30.90
2018-12-29T17:36:32.570Z,31.25
2018-12-29T17:39:12.940Z,27.20
2018-12-29T17:41:53.877Z,29.80
2018-12-29T17:44:34.663Z,28.95
2018-12-29T17:47:15.206Z,25.43
2018-12-29T17:49:55.593Z,31.23
2018-12-29T17:52:36.342Z,32.28
2018-12-29T17:55:17.876Z,40.40
2018-12-29T17:57:59.814Z,37.63
2018-12-29T18:00:41.107Z,38.63
2018-12-29T18:03:21.939Z,36.60
2018-12-29T18:06:02.832Z,30.40
2018-12-29T18:08:43.158Z,23.20
2018-12-29T18:11:24.179Z,25.70
2018-12-29T18:14:04.910Z,23.18
2018-12-29T18:16:47.796Z,21.93
2018-12-29T18:19:30.612Z,24.70
2018-12-29T18:22:11.437Z,19.42
2018-12-29T18:24:52.127Z,22.35
2018-12-29T18:27:32.602Z,15.60
2018-12-29T18:30:13.475Z,19.50
2018-12-29T18:32:54.297Z,22.02
2018-12-29T18:35:34.749Z,17.45
2018-12-29T18:38:15.544Z,19.30
2018-12-29T18:40:56.054Z,23.02
2018-12-29T18:43:36.443Z,21.68
2018-12-29T18:46:17.298Z,21.35
2018-12-29T18:48:58.135Z,19.50
2018-12-29T18:51:38.490Z,20.17
2018-12-29T18:54:18.987Z,16.10
2018-12-29T18:56:59.335Z,25.43
2018-12-29T18:59:39.711Z,17.15
2018-12-29T19:02:20.359Z,27.17
2018-12-29T19:05:00.940Z,24.23
2018-12-29T19:07:41.436Z,28.73
2018-12-29T19:10:23.397Z,26.97
2018-12-29T19:13:04.412Z,31.50
2018-12-29T19:15:46.193Z,33.20
2018-12-29T19:18:26.719Z,30.60
2018-12-29T19:21:07.656Z,23.10
2018-12-29T19:23:48.315Z,24.32
2018-12-29T19:26:29.199Z,30.57
2018-12-29T19:29:10.629Z,27.70
2018-12-29T19:31:52.541Z,23.65
2018-12-29T19:34:34.015Z,26.10
2018-12-29T19:37:15.647Z,31.73
2018-12-29T19:39:56.016Z,24.72
2018-12-29T19:42:36.807Z,24.65
2018-12-29T19:45:17.515Z,29.27
2018-12-29T19:47:59.047Z,24.47
2018-12-29T19:50:39.630Z,22.42
2018-12-29T19:53:20.342Z,29.05
2018-12-29T19:56:01.360Z,26.33
2018-12-29T19:58:42.283Z,26.15
2018-12-29T20:01:22.676Z,31.42
2018-12-29T20:04:03.375Z,25.57
2018-12-29T20:06:43.967Z,27.90
2018-12-29T20:09:24.985Z,31.87
2018-12-29T20:12:05.580Z,30.85
2018-12-29T20:14:46.452Z,30.75
2018-12-29T20:17:34.560Z,28.55
2018-12-29T20:20:09.638Z,31.93
2018-12-29T20:22:50.469Z,25.72
2018-12-29T20:25:31.114Z,26.85
2018-12-29T20:28:11.679Z,20.62
2018-12-29T20:30:52.155Z,28.35
2018-12-29T20:33:33.059Z,26.68
2018-12-29T20:36:13.779Z,26.95
2018-12-29T20:38:54.908Z,20.48
2018-12-29T20:41:35.659Z,24.15
2018-12-29T20:44:16.465Z,21.25
2018-12-29T20:46:57.316Z,25.92
2018-12-29T20:49:38.219Z,24.18
2018-12-29T20:52:18.718Z,25.97
2018-12-29T20:54:59.363Z,26.80
2018-12-29T20:57:40.333Z,30.32
2018-12-29T21:00:20.927Z,23.75
2018-12-29T21:03:01.827Z,27.77
2018-12-29T21:05:42.371Z,17.05
2018-12-29T21:08:22.883Z,20.65
2018-12-29T21:11:04.424Z,20.43
2018-12-29T21:13:45.380Z,21.30
2018-12-29T21:16:26.065Z,20.02
2018-12-29T21:19:06.975Z,20.12
2018-12-29T21:21:48.208Z,20.90
2018-12-29T21:24:28.953Z,23.90
2018-12-29T21:27:09.676Z,20.08
2018-12-29T21:29:50.885Z,22.77
2018-12-29T21:32:31.459Z,23.10
2018-12-29T21:35:12.195Z,20.55
2018-12-29T21:37:52.990Z,30.70
2018-12-29T21:40:33.711Z,25.92
2018-12-29T21:43:14.204Z,24.50
2018-12-29T21:45:54.746Z,24.02
2018-12-29T21:48:36.258Z,25.92
2018-12-29T21:51:16.777Z,27.50
2018-12-29T21:53:57.658Z,20.55
2018-12-29T21:56:38.232Z,24.18
2018-12-29T21:59:19.426Z,21.75
2018-12-29T22:02:00.122Z,26.62
2018-12-29T22:04:40.893Z,27.93
2018-12-29T22:07:21.840Z,22.80
2018-12-29T22:09:50.388Z,22.82
2018-12-29T22:12:38.292Z,32.38
2018-12-29T22:15:26.179Z,25.08
2018-12-29T22:18:15.736Z,25.80
2018-12-29T22:21:03.667Z,31.23
2018-12-29T22:23:51.576Z,24.30
2018-12-29T22:26:39.459Z,31.37
2018-12-29T22:29:27.370Z,42.45
2018-12-29T22:32:15.458Z,36.93
2018-12-29T22:35:03.398Z,33.42
2018-12-29T22:37:51.275Z,40.03
2018-12-29T22:40:39.175Z,35.50
2018-12-29T22:43:27.051Z,33.05
2018-12-29T22:46:14.963Z,29.55
2018-12-29T22:49:02.847Z,30.17
2018-12-29T22:51:50.747Z,33.13
2018-12-29T22:54:38.643Z,26.82
2018-12-29T22:57:26.543Z,25.90
2018-12-29T23:03:23.223Z,28.67
2018-12-29T23:06:11.112Z,24.32
2018-12-29T23:08:59.016Z,25.27
2018-12-29T23:11:46.970Z,25.65
2018-12-29T23:14:34.880Z,24.23
2018-12-29T23:17:24.399Z,23.02
2018-12-29T23:20:12.301Z,24.50
2018-12-29T23:23:00.171Z,23.10
2018-12-29T23:25:40.952Z,23.38
2018-12-29T23:28:21.713Z,29.87
2018-12-29T23:31:02.585Z,19.85
2018-12-29T23:33:43.172Z,24.40
2018-12-29T23:36:24.115Z,23.65
2018-12-29T23:39:04.992Z,21.10
2018-12-29T23:41:45.837Z,26.35
2018-12-29T23:44:26.442Z,22.55
2018-12-29T23:47:07.477Z,22.13
2018-12-29T23:49:48.502Z,18.80
2018-12-29T23:52:29.031Z,17.50
2018-12-29T23:55:10.160Z,16.65
2018-12-29T23:57:50.868Z,23.18
